ETNL/RLG METAR and TAF weather

Enter ICAO airport designator
Station Type Date Time Source
ETNL METAR 2019/04/25 21:20 UTC NOAA

ETNL 252120Z 08010KT 9999 BKN240 12/10 Q1011 BLU+


Station Type Date Time Source
ETNL Decoded METAR 2019/04/25 21:20 UTC NOAA

Laage, Germany (ETNL) 53-55N 012-17E 46M
Apr 25, 2019 - 05:20 PM EDT / 2019.04.25 2120 UTC
Wind: from the E (080 degrees) at 12 MPH (10 KT):0
Visibility: greater than 7 mile(s):0
Sky conditions: mostly cloudy
Temperature: 53 F (12 C)
Dew Point: 50 F (10 C)
Relative Humidity: 87%
Pressure (altimeter): 29.85 in. Hg (1011 hPa)
ob: ETNL 252120Z 08010KT 9999 BKN240 12/10 Q1011 BLU+
cycle: 21

Station Type Date Time Source
ETNL TAF 2019/02/17 00:37 UTC NOAA

TAF ETNL 172300Z 1800/1818 16005KT 7000 NSW BKN280
BECMG 1801/1803 22005KT 4000 BR BKN250 PROB30 1303/1807 18003KT 2000 BR BKN010
BECMG 1808/1810 24008KT 9999 NSW BKN250 BY ETGL

Example: see airport list